sensor_id;sensor_type;location;lat;lon;timestamp;temperature;humidity
43183;DHT22;28802;38.578;-0.066;2023-03-01T00:01:59;6.40;99.90
43183;DHT22;28802;38.578;-0.066;2023-03-01T00:04:26;6.30;99.90
43183;DHT22;28802;38.578;-0.066;2023-03-01T00:06:53;6.30;99.90
43183;DHT22;28802;38.578;-0.066;2023-03-01T00:09:20;6.30;99.90
43183;DHT22;28802;38.578;-0.066;2023-03-01T00:11:46;6.30;99.90
43183;DHT22;28802;38.578;-0.066;2023-03-01T00:14:13;6.30;99.90
43183;DHT22;28802;38.578;-0.066;2023-03-01T00:16:41;6.40;99.90
43183;DHT22;28802;38.578;-0.066;2023-03-01T00:19:11;6.50;99.90
43183;DHT22;28802;38.578;-0.066;2023-03-01T00:21:37;6.50;99.90
43183;DHT22;28802;38.578;-0.066;2023-03-01T00:24:03;6.40;99.90
43183;DHT22;28802;38.578;-0.066;2023-03-01T00:26:30;6.40;99.90
43183;DHT22;28802;38.578;-0.066;2023-03-01T00:28:58;6.40;99.90
43183;DHT22;28802;38.578;-0.066;2023-03-01T00:31:33;6.40;99.90
43183;DHT22;28802;38.578;-0.066;2023-03-01T00:34:02;6.40;99.90
43183;DHT22;28802;38.578;-0.066;2023-03-01T00:36:35;6.40;99.90
43183;DHT22;28802;38.578;-0.066;2023-03-01T00:39:03;6.40;99.90
43183;DHT22;28802;38.578;-0.066;2023-03-01T00:41:39;6.50;99.90
43183;DHT22;28802;38.578;-0.066;2023-03-01T00:44:08;6.50;99.90
43183;DHT22;28802;38.578;-0.066;2023-03-01T00:46:53;6.60;99.90
43183;DHT22;28802;38.578;-0.066;2023-03-01T00:49:19;6.50;99.90
43183;DHT22;28802;38.578;-0.066;2023-03-01T00:51:45;6.40;99.90
43183;DHT22;28802;38.578;-0.066;2023-03-01T00:54:11;6.50;99.90
43183;DHT22;28802;38.578;-0.066;2023-03-01T00:56:37;6.40;99.90
43183;DHT22;28802;38.578;-0.066;2023-03-01T00:59:07;6.40;99.90
43183;DHT22;28802;38.578;-0.066;2023-03-01T01:01:33;6.40;99.90
43183;DHT22;28802;38.578;-0.066;2023-03-01T01:04:05;6.40;99.90
43183;DHT22;28802;38.578;-0.066;2023-03-01T01:06:37;6.60;99.90
43183;DHT22;28802;38.578;-0.066;2023-03-01T01:09:06;6.70;99.90
43183;DHT22;28802;38.578;-0.066;2023-03-01T01:11:36;6.50;99.90
43183;DHT22;28802;38.578;-0.066;2023-03-01T01:14:03;6.40;99.90
43183;DHT22;28802;38.578;-0.066;2023-03-01T01:16:29;6.60;99.90
43183;DHT22;28802;38.578;-0.066;2023-03-01T01:18:59;6.50;99.90
43183;DHT22;28802;38.578;-0.066;2023-03-01T01:21:25;6.40;99.90
43183;DHT22;28802;38.578;-0.066;2023-03-01T01:23:52;6.30;99.90
43183;DHT22;28802;38.578;-0.066;2023-03-01T01:26:24;6.30;99.90
43183;DHT22;28802;38.578;-0.066;2023-03-01T01:28:51;6.30;99.90
43183;DHT22;28802;38.578;-0.066;2023-03-01T01:31:18;6.20;99.90
43183;DHT22;28802;38.578;-0.066;2023-03-01T01:33:44;6.30;99.90
43183;DHT22;28802;38.578;-0.066;2023-03-01T01:36:11;6.30;99.90
43183;DHT22;28802;38.578;-0.066;2023-03-01T01:38:39;6.30;99.90
43183;DHT22;28802;38.578;-0.066;2023-03-01T01:41:05;6.20;99.90
43183;DHT22;28802;38.578;-0.066;2023-03-01T01:43:40;6.20;99.90
43183;DHT22;28802;38.578;-0.066;2023-03-01T01:46:17;6.20;99.90
43183;DHT22;28802;38.578;-0.066;2023-03-01T01:48:54;6.20;99.90
43183;DHT22;28802;38.578;-0.066;2023-03-01T01:51:30;6.20;99.90
43183;DHT22;28802;38.578;-0.066;2023-03-01T01:54:10;6.20;99.90
43183;DHT22;28802;38.578;-0.066;2023-03-01T01:56:40;6.20;99.90
43183;DHT22;28802;38.578;-0.066;2023-03-01T01:59:09;6.20;99.90
43183;DHT22;28802;38.578;-0.066;2023-03-01T02:01:35;6.30;99.90
43183;DHT22;28802;38.578;-0.066;2023-03-01T02:04:02;6.30;99.90
43183;DHT22;28802;38.578;-0.066;2023-03-01T02:06:37;6.60;99.90
43183;DHT22;28802;38.578;-0.066;2023-03-01T02:09:10;6.80;99.90
43183;DHT22;28802;38.578;-0.066;2023-03-01T02:11:38;6.80;99.90
43183;DHT22;28802;38.578;-0.066;2023-03-01T02:14:04;7.00;99.90
43183;DHT22;28802;38.578;-0.066;2023-03-01T02:16:31;7.00;99.90
43183;DHT22;28802;38.578;-0.066;2023-03-01T02:18:58;7.10;99.90
43183;DHT22;28802;38.578;-0.066;2023-03-01T02:23:53;7.00;99.90
43183;DHT22;28802;38.578;-0.066;2023-03-01T02:29:03;7.20;99.90
43183;DHT22;28802;38.578;-0.066;2023-03-01T02:31:31;7.20;99.90
43183;DHT22;28802;38.578;-0.066;2023-03-01T02:34:17;7.20;99.90
43183;DHT22;28802;38.578;-0.066;2023-03-01T02:37:02;7.40;99.90
43183;DHT22;28802;38.578;-0.066;2023-03-01T02:39:39;7.50;99.90
43183;DHT22;28802;38.578;-0.066;2023-03-01T02:42:12;7.50;99.90
43183;DHT22;28802;38.578;-0.066;2023-03-01T02:44:39;7.60;99.90
43183;DHT22;28802;38.578;-0.066;2023-03-01T02:47:05;7.70;99.90
43183;DHT22;28802;38.578;-0.066;2023-03-01T02:49:35;7.60;99.90
43183;DHT22;28802;38.578;-0.066;2023-03-01T02:55:11;7.90;99.90
43183;DHT22;28802;38.578;-0.066;2023-03-01T02:57:41;7.90;99.90
43183;DHT22;28802;38.578;-0.066;2023-03-01T03:00:11;8.00;99.90
43183;DHT22;28802;38.578;-0.066;2023-03-01T03:02:48;8.00;99.90
43183;DHT22;28802;38.578;-0.066;2023-03-01T03:05:23;8.00;99.90
43183;DHT22;28802;38.578;-0.066;2023-03-01T03:07:53;8.10;99.90
43183;DHT22;28802;38.578;-0.066;2023-03-01T03:10:25;8.20;99.90
43183;DHT22;28802;38.578;-0.066;2023-03-01T03:12:53;8.30;99.90
43183;DHT22;28802;38.578;-0.066;2023-03-01T03:15:21;8.40;99.90
43183;DHT22;28802;38.578;-0.066;2023-03-01T03:17:48;8.40;99.90
43183;DHT22;28802;38.578;-0.066;2023-03-01T03:20:17;8.40;99.90
43183;DHT22;28802;38.578;-0.066;2023-03-01T03:22:48;8.30;99.90
43183;DHT22;28802;38.578;-0.066;2023-03-01T03:25:15;8.40;99.90
43183;DHT22;28802;38.578;-0.066;2023-03-01T03:27:43;8.50;99.90
43183;DHT22;28802;38.578;-0.066;2023-03-01T03:30:15;8.50;99.90
43183;DHT22;28802;38.578;-0.066;2023-03-01T03:32:43;8.50;99.90
43183;DHT22;28802;38.578;-0.066;2023-03-01T03:35:21;8.40;99.90
43183;DHT22;28802;38.578;-0.066;2023-03-01T03:37:48;8.40;99.90
43183;DHT22;28802;38.578;-0.066;2023-03-01T03:40:36;8.60;99.90
43183;DHT22;28802;38.578;-0.066;2023-03-01T03:43:04;8.60;99.90
43183;DHT22;28802;38.578;-0.066;2023-03-01T03:45:30;8.60;99.90
43183;DHT22;28802;38.578;-0.066;2023-03-01T03:48:03;8.70;99.90
43183;DHT22;28802;38.578;-0.066;2023-03-01T03:50:30;8.60;99.90
43183;DHT22;28802;38.578;-0.066;2023-03-01T03:52:57;8.50;99.90
43183;DHT22;28802;38.578;-0.066;2023-03-01T03:55:23;8.50;99.90
43183;DHT22;28802;38.578;-0.066;2023-03-01T03:57:53;8.40;99.90
43183;DHT22;28802;38.578;-0.066;2023-03-01T04:00:21;8.30;99.90
43183;DHT22;28802;38.578;-0.066;2023-03-01T04:02:50;8.40;99.90
43183;DHT22;28802;38.578;-0.066;2023-03-01T04:05:18;8.40;99.90
43183;DHT22;28802;38.578;-0.066;2023-03-01T04:07:45;8.30;99.90
43183;DHT22;28802;38.578;-0.066;2023-03-01T04:10:14;8.30;99.90
43183;DHT22;28802;38.578;-0.066;2023-03-01T04:12:40;8.30;99.90
43183;DHT22;28802;38.578;-0.066;2023-03-01T04:15:10;8.20;99.90
43183;DHT22;28802;38.578;-0.066;2023-03-01T04:17:44;8.20;99.90
43183;DHT22;28802;38.578;-0.066;2023-03-01T04:20:12;8.20;99.90
43183;DHT22;28802;38.578;-0.066;2023-03-01T04:22:39;8.30;99.90
43183;DHT22;28802;38.578;-0.066;2023-03-01T04:25:06;8.30;99.90
43183;DHT22;28802;38.578;-0.066;2023-03-01T04:27:33;8.20;99.90
43183;DHT22;28802;38.578;-0.066;2023-03-01T04:30:00;8.10;99.90
43183;DHT22;28802;38.578;-0.066;2023-03-01T04:32:26;8.10;99.90
43183;DHT22;28802;38.578;-0.066;2023-03-01T04:34:52;8.30;99.90
43183;DHT22;28802;38.578;-0.066;2023-03-01T04:37:18;8.30;99.90
43183;DHT22;28802;38.578;-0.066;2023-03-01T04:39:44;8.30;99.90
43183;DHT22;28802;38.578;-0.066;2023-03-01T04:42:14;8.30;99.90
43183;DHT22;28802;38.578;-0.066;2023-03-01T04:44:40;8.30;99.90
43183;DHT22;28802;38.578;-0.066;2023-03-01T04:47:06;8.30;99.90
43183;DHT22;28802;38.578;-0.066;2023-03-01T04:49:32;8.50;99.90
43183;DHT22;28802;38.578;-0.066;2023-03-01T04:51:59;8.50;99.90
43183;DHT22;28802;38.578;-0.066;2023-03-01T04:54:28;8.50;99.90
43183;DHT22;28802;38.578;-0.066;2023-03-01T04:56:54;8.60;99.90
43183;DHT22;28802;38.578;-0.066;2023-03-01T04:59:20;8.60;99.90
43183;DHT22;28802;38.578;-0.066;2023-03-01T05:01:50;8.30;99.90
43183;DHT22;28802;38.578;-0.066;2023-03-01T05:04:16;8.20;99.90
43183;DHT22;28802;38.578;-0.066;2023-03-01T05:06:43;8.10;99.90
43183;DHT22;28802;38.578;-0.066;2023-03-01T05:09:09;8.20;99.90
43183;DHT22;28802;38.578;-0.066;2023-03-01T05:11:37;8.20;99.90
43183;DHT22;28802;38.578;-0.066;2023-03-01T05:14:04;8.20;99.90
43183;DHT22;28802;38.578;-0.066;2023-03-01T05:16:31;8.10;99.90
43183;DHT22;28802;38.578;-0.066;2023-03-01T05:18:58;8.10;99.90
43183;DHT22;28802;38.578;-0.066;2023-03-01T05:21:25;8.10;99.90
43183;DHT22;28802;38.578;-0.066;2023-03-01T05:23:51;8.20;99.90
43183;DHT22;28802;38.578;-0.066;2023-03-01T05:26:19;8.10;99.90
43183;DHT22;28802;38.578;-0.066;2023-03-01T05:28:47;8.20;99.90
43183;DHT22;28802;38.578;-0.066;2023-03-01T05:31:13;8.20;99.90
43183;DHT22;28802;38.578;-0.066;2023-03-01T05:33:40;8.30;99.90
43183;DHT22;28802;38.578;-0.066;2023-03-01T05:36:08;8.40;99.90
43183;DHT22;28802;38.578;-0.066;2023-03-01T05:38:35;8.30;99.90
43183;DHT22;28802;38.578;-0.066;2023-03-01T05:41:02;8.40;99.90
43183;DHT22;28802;38.578;-0.066;2023-03-01T05:43:31;8.30;99.90
43183;DHT22;28802;38.578;-0.066;2023-03-01T05:46:00;8.30;99.90
43183;DHT22;28802;38.578;-0.066;2023-03-01T05:48:26;8.20;99.90
43183;DHT22;28802;38.578;-0.066;2023-03-01T05:50:52;8.20;99.90
43183;DHT22;28802;38.578;-0.066;2023-03-01T05:53:19;8.00;99.90
43183;DHT22;28802;38.578;-0.066;2023-03-01T05:55:48;8.00;99.90
43183;DHT22;28802;38.578;-0.066;2023-03-01T05:58:18;7.90;99.90
43183;DHT22;28802;38.578;-0.066;2023-03-01T06:00:47;7.70;99.90
43183;DHT22;28802;38.578;-0.066;2023-03-01T06:03:15;7.80;99.90
43183;DHT22;28802;38.578;-0.066;2023-03-01T06:05:42;7.90;99.90
43183;DHT22;28802;38.578;-0.066;2023-03-01T06:08:10;8.10;99.90
43183;DHT22;28802;38.578;-0.066;2023-03-01T06:10:36;8.10;99.90
43183;DHT22;28802;38.578;-0.066;2023-03-01T06:13:03;8.00;99.90
43183;DHT22;28802;38.578;-0.066;2023-03-01T06:15:28;8.00;99.90
43183;DHT22;28802;38.578;-0.066;2023-03-01T06:17:55;8.00;99.90
43183;DHT22;28802;38.578;-0.066;2023-03-01T06:20:26;7.80;99.90
43183;DHT22;28802;38.578;-0.066;2023-03-01T06:22:52;7.70;99.90
43183;DHT22;28802;38.578;-0.066;2023-03-01T06:25:20;7.50;99.90
43183;DHT22;28802;38.578;-0.066;2023-03-01T06:27:48;7.50;99.90
43183;DHT22;28802;38.578;-0.066;2023-03-01T06:30:18;7.50;99.90
43183;DHT22;28802;38.578;-0.066;2023-03-01T06:32:44;7.70;99.90
43183;DHT22;28802;38.578;-0.066;2023-03-01T06:35:12;7.80;99.90
43183;DHT22;28802;38.578;-0.066;2023-03-01T06:37:40;7.80;99.90
43183;DHT22;28802;38.578;-0.066;2023-03-01T06:40:07;7.90;99.90
43183;DHT22;28802;38.578;-0.066;2023-03-01T06:42:38;8.00;99.90
43183;DHT22;28802;38.578;-0.066;2023-03-01T06:45:05;7.90;99.90
43183;DHT22;28802;38.578;-0.066;2023-03-01T06:47:32;7.80;99.90
43183;DHT22;28802;38.578;-0.066;2023-03-01T06:49:59;8.00;99.90
43183;DHT22;28802;38.578;-0.066;2023-03-01T06:52:25;7.90;99.90
43183;DHT22;28802;38.578;-0.066;2023-03-01T06:54:51;7.80;99.90
43183;DHT22;28802;38.578;-0.066;2023-03-01T06:57:17;7.80;99.90
43183;DHT22;28802;38.578;-0.066;2023-03-01T06:59:43;8.00;99.90
43183;DHT22;28802;38.578;-0.066;2023-03-01T07:02:13;8.30;99.90
43183;DHT22;28802;38.578;-0.066;2023-03-01T07:04:39;8.70;99.90
43183;DHT22;28802;38.578;-0.066;2023-03-01T07:07:05;9.20;99.90
43183;DHT22;28802;38.578;-0.066;2023-03-01T07:09:32;9.70;99.90
43183;DHT22;28802;38.578;-0.066;2023-03-01T07:11:58;10.20;99.90
43183;DHT22;28802;38.578;-0.066;2023-03-01T07:14:24;10.60;99.90
43183;DHT22;28802;38.578;-0.066;2023-03-01T07:16:52;11.30;99.90
43183;DHT22;28802;38.578;-0.066;2023-03-01T07:19:18;11.60;99.90
43183;DHT22;28802;38.578;-0.066;2023-03-01T07:21:44;12.10;99.90
43183;DHT22;28802;38.578;-0.066;2023-03-01T07:24:10;12.60;99.90
43183;DHT22;28802;38.578;-0.066;2023-03-01T07:26:36;12.90;99.90
43183;DHT22;28802;38.578;-0.066;2023-03-01T07:29:04;13.40;99.90
43183;DHT22;28802;38.578;-0.066;2023-03-01T07:31:31;13.80;99.90
43183;DHT22;28802;38.578;-0.066;2023-03-01T07:33:57;14.20;99.90
43183;DHT22;28802;38.578;-0.066;2023-03-01T07:36:26;14.80;99.90
43183;DHT22;28802;38.578;-0.066;2023-03-01T07:38:52;15.40;99.90
43183;DHT22;28802;38.578;-0.066;2023-03-01T07:41:18;15.80;99.90
43183;DHT22;28802;38.578;-0.066;2023-03-01T07:43:45;15.90;99.90
43183;DHT22;28802;38.578;-0.066;2023-03-01T07:46:11;16.20;99.90
43183;DHT22;28802;38.578;-0.066;2023-03-01T07:48:36;16.30;99.90
43183;DHT22;28802;38.578;-0.066;2023-03-01T07:51:04;16.50;99.90
43183;DHT22;28802;38.578;-0.066;2023-03-01T07:53:30;16.80;99.90
43183;DHT22;28802;38.578;-0.066;2023-03-01T07:56:11;17.20;99.90
43183;DHT22;28802;38.578;-0.066;2023-03-01T07:58:42;17.30;99.90
43183;DHT22;28802;38.578;-0.066;2023-03-01T08:01:15;17.60;99.90
43183;DHT22;28802;38.578;-0.066;2023-03-01T08:03:42;17.60;99.90
43183;DHT22;28802;38.578;-0.066;2023-03-01T08:06:10;17.50;99.90
43183;DHT22;28802;38.578;-0.066;2023-03-01T08:08:37;18.00;99.90
43183;DHT22;28802;38.578;-0.066;2023-03-01T08:11:04;18.30;99.90
43183;DHT22;28802;38.578;-0.066;2023-03-01T08:13:30;18.80;99.90
43183;DHT22;28802;38.578;-0.066;2023-03-01T08:16:09;19.40;99.90
43183;DHT22;28802;38.578;-0.066;2023-03-01T08:18:37;20.10;99.90
43183;DHT22;28802;38.578;-0.066;2023-03-01T08:21:11;19.80;99.90
43183;DHT22;28802;38.578;-0.066;2023-03-01T08:23:41;19.10;99.90
43183;DHT22;28802;38.578;-0.066;2023-03-01T08:26:18;18.20;99.90
43183;DHT22;28802;38.578;-0.066;2023-03-01T08:28:46;18.30;99.90
43183;DHT22;28802;38.578;-0.066;2023-03-01T08:31:22;17.70;99.90
43183;DHT22;28802;38.578;-0.066;2023-03-01T08:33:50;18.30;99.90
43183;DHT22;28802;38.578;-0.066;2023-03-01T08:36:24;18.80;99.90
43183;DHT22;28802;38.578;-0.066;2023-03-01T08:38:51;18.90;99.90
43183;DHT22;28802;38.578;-0.066;2023-03-01T08:41:17;17.80;99.90
43183;DHT22;28802;38.578;-0.066;2023-03-01T08:43:44;17.70;99.90
43183;DHT22;28802;38.578;-0.066;2023-03-01T08:46:11;17.20;99.90
43183;DHT22;28802;38.578;-0.066;2023-03-01T08:48:37;17.80;99.90
43183;DHT22;28802;38.578;-0.066;2023-03-01T08:51:17;18.10;99.90
43183;DHT22;28802;38.578;-0.066;2023-03-01T08:53:44;19.30;99.90
43183;DHT22;28802;38.578;-0.066;2023-03-01T08:56:11;17.60;99.90
43183;DHT22;28802;38.578;-0.066;2023-03-01T08:58:37;17.10;99.90
43183;DHT22;28802;38.578;-0.066;2023-03-01T09:01:09;17.00;99.90
43183;DHT22;28802;38.578;-0.066;2023-03-01T09:03:35;17.20;99.90
43183;DHT22;28802;38.578;-0.066;2023-03-01T09:06:03;17.00;99.90
43183;DHT22;28802;38.578;-0.066;2023-03-01T09:08:29;16.10;99.90
43183;DHT22;28802;38.578;-0.066;2023-03-01T09:10:56;15.60;99.90
43183;DHT22;28802;38.578;-0.066;2023-03-01T09:13:22;16.50;99.90
43183;DHT22;28802;38.578;-0.066;2023-03-01T09:15:52;16.50;99.90
43183;DHT22;28802;38.578;-0.066;2023-03-01T09:18:18;16.50;99.90
43183;DHT22;28802;38.578;-0.066;2023-03-01T09:20:44;15.50;99.90
43183;DHT22;28802;38.578;-0.066;2023-03-01T09:23:10;14.30;99.90
43183;DHT22;28802;38.578;-0.066;2023-03-01T09:25:36;15.00;99.90
43183;DHT22;28802;38.578;-0.066;2023-03-01T09:28:02;15.90;99.90
43183;DHT22;28802;38.578;-0.066;2023-03-01T09:30:29;16.10;99.90
43183;DHT22;28802;38.578;-0.066;2023-03-01T09:32:56;16.70;99.90
43183;DHT22;28802;38.578;-0.066;2023-03-01T09:35:23;16.10;99.90
43183;DHT22;28802;38.578;-0.066;2023-03-01T09:37:49;15.40;99.90
43183;DHT22;28802;38.578;-0.066;2023-03-01T09:40:27;14.80;99.90
43183;DHT22;28802;38.578;-0.066;2023-03-01T09:43:01;15.10;99.90
43183;DHT22;28802;38.578;-0.066;2023-03-01T09:45:38;14.20;99.90
43183;DHT22;28802;38.578;-0.066;2023-03-01T09:48:13;14.60;99.90
43183;DHT22;28802;38.578;-0.066;2023-03-01T09:50:43;14.60;99.90
43183;DHT22;28802;38.578;-0.066;2023-03-01T09:53:18;14.50;99.90
43183;DHT22;28802;38.578;-0.066;2023-03-01T09:56:00;15.10;99.90
43183;DHT22;28802;38.578;-0.066;2023-03-01T09:58:54;15.30;99.90
43183;DHT22;28802;38.578;-0.066;2023-03-01T10:01:32;14.90;99.90
43183;DHT22;28802;38.578;-0.066;2023-03-01T10:06:32;14.70;99.90
43183;DHT22;28802;38.578;-0.066;2023-03-01T10:09:12;14.40;99.90
43183;DHT22;28802;38.578;-0.066;2023-03-01T10:11:42;14.70;99.90
43183;DHT22;28802;38.578;-0.066;2023-03-01T10:17:11;14.20;99.90
43183;DHT22;28802;38.578;-0.066;2023-03-01T10:19:41;14.20;99.90
43183;DHT22;28802;38.578;-0.066;2023-03-01T10:22:27;13.80;99.90
43183;DHT22;28802;38.578;-0.066;2023-03-01T10:24:58;13.80;99.90
43183;DHT22;28802;38.578;-0.066;2023-03-01T10:33:23;13.50;99.90
43183;DHT22;28802;38.578;-0.066;2023-03-01T10:35:50;13.90;99.90
43183;DHT22;28802;38.578;-0.066;2023-03-01T10:38:17;13.70;99.90
43183;DHT22;28802;38.578;-0.066;2023-03-01T10:41:06;13.40;99.90
43183;DHT22;28802;38.578;-0.066;2023-03-01T10:46:34;14.00;99.90
43183;DHT22;28802;38.578;-0.066;2023-03-01T10:49:22;13.90;99.90
43183;DHT22;28802;38.578;-0.066;2023-03-01T10:51:51;13.30;99.90
43183;DHT22;28802;38.578;-0.066;2023-03-01T10:54:32;13.10;99.90
43183;DHT22;28802;38.578;-0.066;2023-03-01T10:57:00;13.00;99.90
43183;DHT22;28802;38.578;-0.066;2023-03-01T10:59:32;13.40;99.90
43183;DHT22;28802;38.578;-0.066;2023-03-01T11:04:36;14.00;99.90
43183;DHT22;28802;38.578;-0.066;2023-03-01T11:07:02;13.80;99.90
43183;DHT22;28802;38.578;-0.066;2023-03-01T11:09:33;14.00;99.90
43183;DHT22;28802;38.578;-0.066;2023-03-01T11:12:15;14.30;99.90
43183;DHT22;28802;38.578;-0.066;2023-03-01T11:14:53;13.60;99.90
43183;DHT22;28802;38.578;-0.066;2023-03-01T11:17:31;14.00;99.90
43183;DHT22;28802;38.578;-0.066;2023-03-01T11:20:17;14.50;99.90
43183;DHT22;28802;38.578;-0.066;2023-03-01T11:23:03;14.50;99.90
43183;DHT22;28802;38.578;-0.066;2023-03-01T11:25:40;14.10;99.90
43183;DHT22;28802;38.578;-0.066;2023-03-01T11:28:14;13.50;99.90
43183;DHT22;28802;38.578;-0.066;2023-03-01T11:31:01;13.90;99.90
43183;DHT22;28802;38.578;-0.066;2023-03-01T11:36:41;13.30;99.90
43183;DHT22;28802;38.578;-0.066;2023-03-01T11:39:21;13.30;99.90
43183;DHT22;28802;38.578;-0.066;2023-03-01T11:42:13;13.20;99.90
43183;DHT22;28802;38.578;-0.066;2023-03-01T11:44:41;13.40;99.90
43183;DHT22;28802;38.578;-0.066;2023-03-01T11:47:24;13.40;99.90
43183;DHT22;28802;38.578;-0.066;2023-03-01T12:05:59;12.00;99.90
43183;DHT22;28802;38.578;-0.066;2023-03-01T12:11:12;13.60;99.90
43183;DHT22;28802;38.578;-0.066;2023-03-01T12:16:46;12.30;99.90
43183;DHT22;28802;38.578;-0.066;2023-03-01T12:27:59;12.90;99.90
43183;DHT22;28802;38.578;-0.066;2023-03-01T12:42:14;12.60;99.90
43183;DHT22;28802;38.578;-0.066;2023-03-01T12:47:43;12.30;99.90
43183;DHT22;28802;38.578;-0.066;2023-03-01T12:50:18;12.10;99.90
43183;DHT22;28802;38.578;-0.066;2023-03-01T12:52:53;12.60;99.90
43183;DHT22;28802;38.578;-0.066;2023-03-01T12:55:26;12.40;99.90
43183;DHT22;28802;38.578;-0.066;2023-03-01T13:03:48;12.10;99.90
43183;DHT22;28802;38.578;-0.066;2023-03-01T13:09:01;11.80;99.90
43183;DHT22;28802;38.578;-0.066;2023-03-01T13:11:29;11.90;99.90
43183;DHT22;28802;38.578;-0.066;2023-03-01T13:16:47;11.60;99.90
43183;DHT22;28802;38.578;-0.066;2023-03-01T13:19:18;11.30;99.90
43183;DHT22;28802;38.578;-0.066;2023-03-01T13:21:45;11.10;99.90
43183;DHT22;28802;38.578;-0.066;2023-03-01T13:24:28;11.60;99.90
43183;DHT22;28802;38.578;-0.066;2023-03-01T13:32:27;11.40;99.90
43183;DHT22;28802;38.578;-0.066;2023-03-01T13:35:01;11.40;99.90
43183;DHT22;28802;38.578;-0.066;2023-03-01T13:37:36;11.40;99.90
43183;DHT22;28802;38.578;-0.066;2023-03-01T13:42:50;11.70;99.90
43183;DHT22;28802;38.578;-0.066;2023-03-01T13:48:29;11.30;99.90
43183;DHT22;28802;38.578;-0.066;2023-03-01T13:51:06;11.40;99.90
43183;DHT22;28802;38.578;-0.066;2023-03-01T13:53:40;11.40;99.90
43183;DHT22;28802;38.578;-0.066;2023-03-01T13:59:15;11.80;99.90
43183;DHT22;28802;38.578;-0.066;2023-03-01T14:01:41;11.50;99.90
43183;DHT22;28802;38.578;-0.066;2023-03-01T14:06:48;11.20;99.90
43183;DHT22;28802;38.578;-0.066;2023-03-01T14:09:18;11.40;99.90
43183;DHT22;28802;38.578;-0.066;2023-03-01T14:14:35;11.60;99.90
43183;DHT22;28802;38.578;-0.066;2023-03-01T14:19:56;11.30;99.90
43183;DHT22;28802;38.578;-0.066;2023-03-01T14:25:01;11.30;99.90
43183;DHT22;28802;38.578;-0.066;2023-03-01T14:27:36;11.20;99.90
43183;DHT22;28802;38.578;-0.066;2023-03-01T14:30:26;11.20;99.90
43183;DHT22;28802;38.578;-0.066;2023-03-01T14:32:58;11.40;99.90
43183;DHT22;28802;38.578;-0.066;2023-03-01T14:35:31;11.40;99.90
43183;DHT22;28802;38.578;-0.066;2023-03-01T14:37:57;11.20;99.90
43183;DHT22;28802;38.578;-0.066;2023-03-01T14:40:28;10.90;99.90
43183;DHT22;28802;38.578;-0.066;2023-03-01T14:42:57;10.90;99.90
43183;DHT22;28802;38.578;-0.066;2023-03-01T14:45:26;11.20;99.90
43183;DHT22;28802;38.578;-0.066;2023-03-01T14:47:53;11.40;99.90
43183;DHT22;28802;38.578;-0.066;2023-03-01T14:50:29;11.40;99.90
43183;DHT22;28802;38.578;-0.066;2023-03-01T14:53:01;11.00;99.90
43183;DHT22;28802;38.578;-0.066;2023-03-01T14:55:41;11.00;99.90
43183;DHT22;28802;38.578;-0.066;2023-03-01T14:58:17;11.30;99.90
43183;DHT22;28802;38.578;-0.066;2023-03-01T15:00:58;11.10;99.90
43183;DHT22;28802;38.578;-0.066;2023-03-01T15:03:31;10.90;99.90
43183;DHT22;28802;38.578;-0.066;2023-03-01T15:06:00;11.00;99.90
43183;DHT22;28802;38.578;-0.066;2023-03-01T15:08:28;10.80;99.90
43183;DHT22;28802;38.578;-0.066;2023-03-01T15:11:20;10.90;99.90
43183;DHT22;28802;38.578;-0.066;2023-03-01T15:13:48;11.00;99.90
43183;DHT22;28802;38.578;-0.066;2023-03-01T15:16:17;10.80;99.90
43183;DHT22;28802;38.578;-0.066;2023-03-01T15:18:59;10.70;99.90
43183;DHT22;28802;38.578;-0.066;2023-03-01T15:21:38;10.90;99.90
43183;DHT22;28802;38.578;-0.066;2023-03-01T15:24:25;11.00;99.90
43183;DHT22;28802;38.578;-0.066;2023-03-01T15:26:58;10.90;99.90
43183;DHT22;28802;38.578;-0.066;2023-03-01T15:29:29;10.90;99.90
43183;DHT22;28802;38.578;-0.066;2023-03-01T15:32:01;11.00;99.90
43183;DHT22;28802;38.578;-0.066;2023-03-01T15:34:30;11.10;99.90
43183;DHT22;28802;38.578;-0.066;2023-03-01T15:36:59;11.10;99.90
43183;DHT22;28802;38.578;-0.066;2023-03-01T15:39:32;11.00;99.90
43183;DHT22;28802;38.578;-0.066;2023-03-01T15:47:48;10.70;99.90
43183;DHT22;28802;38.578;-0.066;2023-03-01T15:50:22;10.80;99.90
43183;DHT22;28802;38.578;-0.066;2023-03-01T15:52:51;11.00;99.90
43183;DHT22;28802;38.578;-0.066;2023-03-01T15:55:20;10.90;99.90
43183;DHT22;28802;38.578;-0.066;2023-03-01T15:57:47;11.00;99.90
43183;DHT22;28802;38.578;-0.066;2023-03-01T16:00:14;10.90;99.90
43183;DHT22;28802;38.578;-0.066;2023-03-01T16:02:42;10.80;99.90
43183;DHT22;28802;38.578;-0.066;2023-03-01T16:05:26;10.90;99.90
43183;DHT22;28802;38.578;-0.066;2023-03-01T16:07:56;10.90;99.90
43183;DHT22;28802;38.578;-0.066;2023-03-01T16:10:22;10.90;99.90
43183;DHT22;28802;38.578;-0.066;2023-03-01T16:12:50;10.90;99.90
43183;DHT22;28802;38.578;-0.066;2023-03-01T16:17:48;10.80;99.90
43183;DHT22;28802;38.578;-0.066;2023-03-01T16:20:22;10.60;99.90
43183;DHT22;28802;38.578;-0.066;2023-03-01T16:22:48;10.60;99.90
43183;DHT22;28802;38.578;-0.066;2023-03-01T16:25:17;10.70;99.90
43183;DHT22;28802;38.578;-0.066;2023-03-01T16:27:44;10.70;99.90
43183;DHT22;28802;38.578;-0.066;2023-03-01T16:30:12;10.70;99.90
43183;DHT22;28802;38.578;-0.066;2023-03-01T16:32:39;10.60;99.90
43183;DHT22;28802;38.578;-0.066;2023-03-01T16:35:07;10.70;99.90
43183;DHT22;28802;38.578;-0.066;2023-03-01T16:37:34;10.70;99.90
43183;DHT22;28802;38.578;-0.066;2023-03-01T16:40:01;10.80;99.90
43183;DHT22;28802;38.578;-0.066;2023-03-01T16:42:28;10.80;99.90
43183;DHT22;28802;38.578;-0.066;2023-03-01T16:44:58;10.80;99.90
43183;DHT22;28802;38.578;-0.066;2023-03-01T16:47:24;10.80;99.90
43183;DHT22;28802;38.578;-0.066;2023-03-01T16:49:54;10.70;99.90
43183;DHT22;28802;38.578;-0.066;2023-03-01T16:52:21;10.70;99.90
43183;DHT22;28802;38.578;-0.066;2023-03-01T16:54:47;10.70;99.90
43183;DHT22;28802;38.578;-0.066;2023-03-01T16:57:14;10.60;99.90
43183;DHT22;28802;38.578;-0.066;2023-03-01T16:59:40;10.60;99.90
43183;DHT22;28802;38.578;-0.066;2023-03-01T17:02:10;10.70;99.90
43183;DHT22;28802;38.578;-0.066;2023-03-01T17:04:39;10.60;99.90
43183;DHT22;28802;38.578;-0.066;2023-03-01T17:07:06;10.60;99.90
43183;DHT22;28802;38.578;-0.066;2023-03-01T17:09:44;10.60;99.90
43183;DHT22;28802;38.578;-0.066;2023-03-01T17:12:37;10.50;99.90
43183;DHT22;28802;38.578;-0.066;2023-03-01T17:15:25;10.60;99.90
43183;DHT22;28802;38.578;-0.066;2023-03-01T17:17:55;10.70;99.90
43183;DHT22;28802;38.578;-0.066;2023-03-01T17:20:21;10.60;99.90
43183;DHT22;28802;38.578;-0.066;2023-03-01T17:22:47;10.60;99.90
43183;DHT22;28802;38.578;-0.066;2023-03-01T17:25:13;10.60;99.90
43183;DHT22;28802;38.578;-0.066;2023-03-01T17:27:39;10.70;99.90
43183;DHT22;28802;38.578;-0.066;2023-03-01T17:30:07;10.90;99.90
43183;DHT22;28802;38.578;-0.066;2023-03-01T17:32:33;11.10;99.90
43183;DHT22;28802;38.578;-0.066;2023-03-01T17:35:00;10.90;99.90
43183;DHT22;28802;38.578;-0.066;2023-03-01T17:37:26;10.80;99.90
43183;DHT22;28802;38.578;-0.066;2023-03-01T17:39:52;10.90;99.90